sensor_id;sensor_type;location;lat;lon;timestamp;pressure;altitude;pressure_sealevel;temperature;humidity
77725;BME280;66892;53.236;6.550;2024-03-02T00:00:30;100131.09;;;6.47;100.00
77725;BME280;66892;53.236;6.550;2024-03-02T00:02:56;100139.84;;;6.46;100.00
77725;BME280;66892;53.236;6.550;2024-03-02T00:05:22;100133.72;;;6.50;100.00
77725;BME280;66892;53.236;6.550;2024-03-02T00:07:53;100140.72;;;6.55;100.00
77725;BME280;66892;53.236;6.550;2024-03-02T00:10:22;100135.47;;;6.55;100.00
77725;BME280;66892;53.236;6.550;2024-03-02T00:12:54;100136.34;;;6.56;100.00
77725;BME280;66892;53.236;6.550;2024-03-02T00:15:39;100131.13;;;6.57;100.00
77725;BME280;66892;53.236;6.550;2024-03-02T00:18:07;100134.63;;;6.53;100.00
77725;BME280;66892;53.236;6.550;2024-03-02T00:20:34;100129.34;;;6.49;100.00
77725;BME280;66892;53.236;6.550;2024-03-02T00:23:03;100137.22;;;6.46;100.00
77725;BME280;66892;53.236;6.550;2024-03-02T00:25:39;100134.59;;;6.47;100.00
77725;BME280;66892;53.236;6.550;2024-03-02T00:28:19;100128.47;;;6.44;100.00
77725;BME280;66892;53.236;6.550;2024-03-02T00:30:57;100131.06;;;6.36;100.00
77725;BME280;66892;53.236;6.550;2024-03-02T00:33:26;100127.59;;;6.35;100.00
77725;BME280;66892;53.236;6.550;2024-03-02T00:35:53;100128.44;;;6.28;100.00
77725;BME280;66892;53.236;6.550;2024-03-02T00:38:20;100116.19;;;6.30;100.00
77725;BME280;66892;53.236;6.550;2024-03-02T00:40:46;100120.56;;;6.28;100.00
77725;BME280;66892;53.236;6.550;2024-03-02T00:46:08;100130.19;;;6.31;100.00
77725;BME280;66892;53.236;6.550;2024-03-02T00:48:34;100124.09;;;6.35;100.00
77725;BME280;66892;53.236;6.550;2024-03-02T00:51:02;100125.84;;;6.45;100.00
77725;BME280;66892;53.236;6.550;2024-03-02T00:53:29;100124.09;;;6.50;100.00
77725;BME280;66892;53.236;6.550;2024-03-02T00:55:57;100115.38;;;6.54;100.00
77725;BME280;66892;53.236;6.550;2024-03-02T00:58:23;100118.00;;;6.54;100.00
77725;BME280;66892;53.236;6.550;2024-03-02T01:00:49;100127.59;;;6.52;100.00
77725;BME280;66892;53.236;6.550;2024-03-02T01:03:16;100111.84;;;6.57;100.00
77725;BME280;66892;53.236;6.550;2024-03-02T01:05:42;100125.84;;;6.56;100.00
77725;BME280;66892;53.236;6.550;2024-03-02T01:08:08;100119.72;;;6.54;100.00
77725;BME280;66892;53.236;6.550;2024-03-02T01:10:34;100110.97;;;6.53;100.00
77725;BME280;66892;53.236;6.550;2024-03-02T01:13:00;100109.22;;;6.55;100.00
77725;BME280;66892;53.236;6.550;2024-03-02T01:15:27;100100.47;;;6.53;100.00
77725;BME280;66892;53.236;6.550;2024-03-02T01:17:53;100096.97;;;6.59;100.00
77725;BME280;66892;53.236;6.550;2024-03-02T01:20:20;100090.84;;;6.61;100.00
77725;BME280;66892;53.236;6.550;2024-03-02T01:22:47;100082.09;;;6.64;100.00
77725;BME280;66892;53.236;6.550;2024-03-02T01:25:13;100085.59;;;6.67;100.00
77725;BME280;66892;53.236;6.550;2024-03-02T01:27:39;100082.97;;;6.63;100.00
77725;BME280;66892;53.236;6.550;2024-03-02T01:30:06;100067.22;;;6.64;100.00
77725;BME280;66892;53.236;6.550;2024-03-02T01:32:32;100072.44;;;6.66;100.00
77725;BME280;66892;53.236;6.550;2024-03-02T01:34:58;100069.84;;;6.70;100.00
77725;BME280;66892;53.236;6.550;2024-03-02T01:37:26;100068.97;;;6.70;100.00
77725;BME280;66892;53.236;6.550;2024-03-02T01:39:52;100080.34;;;6.66;100.00
77725;BME280;66892;53.236;6.550;2024-03-02T01:42:18;100078.56;;;6.65;100.00
77725;BME280;66892;53.236;6.550;2024-03-02T01:44:44;100078.56;;;6.62;100.00
77725;BME280;66892;53.236;6.550;2024-03-02T01:47:10;100071.56;;;6.62;100.00
77725;BME280;66892;53.236;6.550;2024-03-02T01:49:36;100082.97;;;6.61;100.00
77725;BME280;66892;53.236;6.550;2024-03-02T01:52:04;100074.19;;;6.62;100.00
77725;BME280;66892;53.236;6.550;2024-03-02T01:54:32;100072.47;;;6.67;100.00
77725;BME280;66892;53.236;6.550;2024-03-02T01:56:58;100066.34;;;6.70;100.00
77725;BME280;66892;53.236;6.550;2024-03-02T01:59:24;100065.44;;;6.68;100.00
77725;BME280;66892;53.236;6.550;2024-03-02T02:01:51;100056.69;;;6.70;100.00
77725;BME280;66892;53.236;6.550;2024-03-02T02:04:17;100060.19;;;6.69;100.00
77725;BME280;66892;53.236;6.550;2024-03-02T02:06:44;100067.19;;;6.69;100.00
77725;BME280;66892;53.236;6.550;2024-03-02T02:09:10;100071.59;;;6.67;100.00
77725;BME280;66892;53.236;6.550;2024-03-02T02:11:37;100061.94;;;6.72;100.00
77725;BME280;66892;53.236;6.550;2024-03-02T02:14:03;100056.69;;;6.76;100.00
77725;BME280;66892;53.236;6.550;2024-03-02T02:16:29;100057.56;;;6.84;100.00
77725;BME280;66892;53.236;6.550;2024-03-02T02:18:55;100056.69;;;6.90;100.00
77725;BME280;66892;53.236;6.550;2024-03-02T02:21:23;100047.91;;;6.94;100.00
77725;BME280;66892;53.236;6.550;2024-03-02T02:23:49;100061.06;;;6.99;100.00
77725;BME280;66892;53.236;6.550;2024-03-02T02:26:16;100047.03;;;7.00;100.00
77725;BME280;66892;53.236;6.550;2024-03-02T02:28:42;100038.28;;;6.96;100.00
77725;BME280;66892;53.236;6.550;2024-03-02T02:31:12;100052.28;;;6.87;100.00
77725;BME280;66892;53.236;6.550;2024-03-02T02:33:39;100053.19;;;6.77;100.00
77725;BME280;66892;53.236;6.550;2024-03-02T02:36:05;100049.69;;;6.77;100.00
77725;BME280;66892;53.236;6.550;2024-03-02T02:38:35;100050.56;;;6.77;100.00
77725;BME280;66892;53.236;6.550;2024-03-02T02:41:02;100049.69;;;6.77;100.00
77725;BME280;66892;53.236;6.550;2024-03-02T02:43:28;100047.06;;;6.78;100.00
77725;BME280;66892;53.236;6.550;2024-03-02T02:45:54;100041.78;;;6.81;100.00
77725;BME280;66892;53.236;6.550;2024-03-02T02:48:20;100047.94;;;6.82;100.00
77725;BME280;66892;53.236;6.550;2024-03-02T02:50:46;100057.56;;;6.92;100.00
77725;BME280;66892;53.236;6.550;2024-03-02T02:53:12;100044.41;;;6.95;100.00
77725;BME280;66892;53.236;6.550;2024-03-02T02:55:40;100051.41;;;6.99;100.00
77725;BME280;66892;53.236;6.550;2024-03-02T02:58:07;100055.78;;;7.05;100.00
77725;BME280;66892;53.236;6.550;2024-03-02T03:00:33;100055.78;;;7.11;100.00
77725;BME280;66892;53.236;6.550;2024-03-02T03:02:59;100048.75;;;7.16;100.00
77725;BME280;66892;53.236;6.550;2024-03-02T03:05:25;100057.50;;;7.21;100.00
77725;BME280;66892;53.236;6.550;2024-03-02T03:07:51;100058.38;;;7.21;100.00
77725;BME280;66892;53.236;6.550;2024-03-02T03:10:17;100051.38;;;7.25;100.00
77725;BME280;66892;53.236;6.550;2024-03-02T03:12:45;100052.22;;;7.24;100.00
77725;BME280;66892;53.236;6.550;2024-03-02T03:15:11;100050.47;;;7.30;100.00
77725;BME280;66892;53.236;6.550;2024-03-02T03:17:38;100054.84;;;7.30;100.00
77725;BME280;66892;53.236;6.550;2024-03-02T03:20:05;100053.97;;;7.31;100.00
77725;BME280;66892;53.236;6.550;2024-03-02T03:22:31;100057.50;;;7.24;100.00
77725;BME280;66892;53.236;6.550;2024-03-02T03:24:58;100047.84;;;7.27;100.00
77725;BME280;66892;53.236;6.550;2024-03-02T03:27:23;100045.22;;;7.30;100.00
77725;BME280;66892;53.236;6.550;2024-03-02T03:29:51;100052.19;;;7.33;100.00
77725;BME280;66892;53.236;6.550;2024-03-02T03:32:17;100044.31;;;7.34;100.00
77725;BME280;66892;53.236;6.550;2024-03-02T03:34:43;100052.22;;;7.30;100.00
77725;BME280;66892;53.236;6.550;2024-03-02T03:37:09;100054.03;;;7.16;100.00
77725;BME280;66892;53.236;6.550;2024-03-02T03:39:35;100054.03;;;7.02;100.00
77725;BME280;66892;53.236;6.550;2024-03-02T03:42:02;100052.31;;;7.00;100.00
77725;BME280;66892;53.236;6.550;2024-03-02T03:44:28;100051.44;;;6.93;100.00
77725;BME280;66892;53.236;6.550;2024-03-02T03:46:55;100040.94;;;6.76;100.00
77725;BME280;66892;53.236;6.550;2024-03-02T03:49:21;100040.06;;;6.55;100.00
77725;BME280;66892;53.236;6.550;2024-03-02T03:51:47;100040.94;;;6.45;100.00
77725;BME280;66892;53.236;6.550;2024-03-02T03:54:13;100039.16;;;6.36;100.00
77725;BME280;66892;53.236;6.550;2024-03-02T03:56:39;100040.91;;;6.28;100.00
77725;BME280;66892;53.236;6.550;2024-03-02T03:59:05;100043.56;;;6.34;100.00
77725;BME280;66892;53.236;6.550;2024-03-02T04:01:31;100034.78;;;6.33;100.00
77725;BME280;66892;53.236;6.550;2024-03-02T04:03:59;100044.44;;;6.25;100.00
77725;BME280;66892;53.236;6.550;2024-03-02T04:06:25;100044.41;;;6.19;100.00
77725;BME280;66892;53.236;6.550;2024-03-02T04:08:51;100046.16;;;6.23;100.00
77725;BME280;66892;53.236;6.550;2024-03-02T04:11:17;100051.44;;;6.34;100.00
77725;BME280;66892;53.236;6.550;2024-03-02T04:13:43;100052.31;;;6.42;100.00
77725;BME280;66892;53.236;6.550;2024-03-02T04:16:09;100045.28;;;6.40;100.00
77725;BME280;66892;53.236;6.550;2024-03-02T04:18:35;100046.16;;;6.32;100.00
77725;BME280;66892;53.236;6.550;2024-03-02T04:21:02;100057.53;;;6.24;100.00
77725;BME280;66892;53.236;6.550;2024-03-02T04:23:28;100056.66;;;6.10;100.00
77725;BME280;66892;53.236;6.550;2024-03-02T04:25:54;100057.50;;;6.13;100.00
77725;BME280;66892;53.236;6.550;2024-03-02T04:28:20;100066.31;;;6.26;100.00
77725;BME280;66892;53.236;6.550;2024-03-02T04:30:46;100061.94;;;6.40;100.00
77725;BME280;66892;53.236;6.550;2024-03-02T04:33:12;100056.69;;;6.54;100.00
77725;BME280;66892;53.236;6.550;2024-03-02T04:35:38;100057.56;;;6.57;100.00
77725;BME280;66892;53.236;6.550;2024-03-02T04:38:06;100063.69;;;6.65;100.00
77725;BME280;66892;53.236;6.550;2024-03-02T04:40:32;100061.97;;;6.67;100.00
77725;BME280;66892;53.236;6.550;2024-03-02T04:42:58;100063.69;;;6.71;100.00
77725;BME280;66892;53.236;6.550;2024-03-02T04:45:25;100068.97;;;6.76;100.00
77725;BME280;66892;53.236;6.550;2024-03-02T04:47:51;100067.19;;;6.81;100.00
77725;BME280;66892;53.236;6.550;2024-03-02T04:50:17;100075.94;;;6.84;100.00
77725;BME280;66892;53.236;6.550;2024-03-02T04:52:43;100078.56;;;6.81;100.00
77725;BME280;66892;53.236;6.550;2024-03-02T04:55:10;100084.72;;;6.73;100.00
77725;BME280;66892;53.236;6.550;2024-03-02T04:57:50;100079.47;;;6.70;100.00
77725;BME280;66892;53.236;6.550;2024-03-02T05:00:20;100082.09;;;6.59;100.00
77725;BME280;66892;53.236;6.550;2024-03-02T05:02:46;100082.09;;;6.56;100.00
77725;BME280;66892;53.236;6.550;2024-03-02T05:05:12;100075.94;;;6.50;100.00
77725;BME280;66892;53.236;6.550;2024-03-02T05:07:38;100085.56;;;6.43;100.00
77725;BME280;66892;53.236;6.550;2024-03-02T05:10:05;100096.06;;;6.37;100.00
77725;BME280;66892;53.236;6.550;2024-03-02T05:12:32;100096.94;;;6.38;100.00
77725;BME280;66892;53.236;6.550;2024-03-02T05:15:11;100105.72;;;6.47;100.00
77725;BME280;66892;53.236;6.550;2024-03-02T05:17:37;100096.97;;;6.54;100.00
77725;BME280;66892;53.236;6.550;2024-03-02T05:20:05;100099.59;;;6.60;100.00
77725;BME280;66892;53.236;6.550;2024-03-02T05:22:31;100104.84;;;6.60;100.00
77725;BME280;66892;53.236;6.550;2024-03-02T05:24:57;100117.09;;;6.57;100.00
77725;BME280;66892;53.236;6.550;2024-03-02T05:27:25;100108.34;;;6.56;100.00
77725;BME280;66892;53.236;6.550;2024-03-02T05:29:52;100120.63;;;6.54;100.00
77725;BME280;66892;53.236;6.550;2024-03-02T05:32:18;100117.09;;;6.55;100.00
77725;BME280;66892;53.236;6.550;2024-03-02T05:34:44;100118.00;;;6.54;100.00
77725;BME280;66892;53.236;6.550;2024-03-02T05:37:10;100120.63;;;6.54;100.00
77725;BME280;66892;53.236;6.550;2024-03-02T05:39:37;100125.00;;;6.64;100.00
77725;BME280;66892;53.236;6.550;2024-03-02T05:42:03;100127.63;;;6.67;100.00
77725;BME280;66892;53.236;6.550;2024-03-02T05:44:29;100121.47;;;6.68;100.00
77725;BME280;66892;53.236;6.550;2024-03-02T05:46:56;100129.38;;;6.74;100.00
77725;BME280;66892;53.236;6.550;2024-03-02T05:49:22;100131.16;;;6.77;100.00
77725;BME280;66892;53.236;6.550;2024-03-02T05:51:48;100133.78;;;6.83;100.00
77725;BME280;66892;53.236;6.550;2024-03-02T05:54:14;100133.78;;;6.83;100.00
77725;BME280;66892;53.236;6.550;2024-03-02T05:56:40;100139.91;;;6.77;100.00
77725;BME280;66892;53.236;6.550;2024-03-02T05:59:06;100139.00;;;6.72;100.00
77725;BME280;66892;53.236;6.550;2024-03-02T06:01:38;100149.53;;;6.77;100.00
77725;BME280;66892;53.236;6.550;2024-03-02T06:04:06;100145.16;;;6.73;100.00
77725;BME280;66892;53.236;6.550;2024-03-02T06:06:32;100153.00;;;6.74;100.00
77725;BME280;66892;53.236;6.550;2024-03-02T06:08:59;100161.78;;;6.73;100.00
77725;BME280;66892;53.236;6.550;2024-03-02T06:11:25;100160.91;;;6.74;100.00
77725;BME280;66892;53.236;6.550;2024-03-02T06:13:51;100157.41;;;6.75;100.00
77725;BME280;66892;53.236;6.550;2024-03-02T06:16:17;100170.56;;;6.74;100.00
77725;BME280;66892;53.236;6.550;2024-03-02T06:18:43;100174.94;;;6.73;100.00
77725;BME280;66892;53.236;6.550;2024-03-02T06:21:11;100179.31;;;6.73;100.00
77725;BME280;66892;53.236;6.550;2024-03-02T06:23:37;100181.94;;;6.73;100.00
77725;BME280;66892;53.236;6.550;2024-03-02T06:26:03;100183.69;;;6.74;100.00
77725;BME280;66892;53.236;6.550;2024-03-02T06:28:29;100187.19;;;6.73;100.00
77725;BME280;66892;53.236;6.550;2024-03-02T06:30:55;100192.44;;;6.70;100.00
77725;BME280;66892;53.236;6.550;2024-03-02T06:33:21;100191.53;;;6.60;100.00
77725;BME280;66892;53.236;6.550;2024-03-02T06:35:47;100196.75;;;6.42;100.00
77725;BME280;66892;53.236;6.550;2024-03-02T06:38:16;100203.69;;;6.22;100.00
77725;BME280;66892;53.236;6.550;2024-03-02T06:40:42;100203.59;;;6.02;100.00
77725;BME280;66892;53.236;6.550;2024-03-02T06:43:08;100213.13;;;5.88;100.00
77725;BME280;66892;53.236;6.550;2024-03-02T06:45:35;100211.31;;;5.82;100.00
77725;BME280;66892;53.236;6.550;2024-03-02T06:48:01;100213.09;;;5.83;100.00
77725;BME280;66892;53.236;6.550;2024-03-02T06:50:27;100207.91;;;5.90;100.00
77725;BME280;66892;53.236;6.550;2024-03-02T06:52:53;100215.69;;;5.80;100.00
77725;BME280;66892;53.236;6.550;2024-03-02T06:55:20;100220.03;;;5.77;100.00
77725;BME280;66892;53.236;6.550;2024-03-02T06:57:46;100219.09;;;5.66;100.00
77725;BME280;66892;53.236;6.550;2024-03-02T07:00:13;100219.97;;;5.65;100.00
77725;BME280;66892;53.236;6.550;2024-03-02T07:02:39;100217.44;;;5.80;100.00
77725;BME280;66892;53.236;6.550;2024-03-02T07:05:08;100225.44;;;5.94;100.00
77725;BME280;66892;53.236;6.550;2024-03-02T07:07:35;100229.84;;;6.05;100.00
77725;BME280;66892;53.236;6.550;2024-03-02T07:10:02;100235.13;;;6.08;100.00
77725;BME280;66892;53.236;6.550;2024-03-02T07:12:30;100235.06;;;5.99;100.00
77725;BME280;66892;53.236;6.550;2024-03-02T07:14:57;100234.97;;;5.84;100.00
77725;BME280;66892;53.236;6.550;2024-03-02T07:17:42;100241.88;;;5.73;100.00
77725;BME280;66892;53.236;6.550;2024-03-02T07:20:09;100246.22;;;5.72;100.00
77725;BME280;66892;53.236;6.550;2024-03-02T07:22:36;100246.34;;;5.86;100.00
77725;BME280;66892;53.236;6.550;2024-03-02T07:25:05;100257.03;;;6.15;100.00
77725;BME280;66892;53.236;6.550;2024-03-02T07:27:34;100245.75;;;6.43;100.00
77725;BME280;66892;53.236;6.550;2024-03-02T07:30:01;100250.22;;;6.67;100.00
77725;BME280;66892;53.236;6.550;2024-03-02T07:32:27;100253.78;;;6.82;100.00
77725;BME280;66892;53.236;6.550;2024-03-02T07:34:53;100259.06;;;6.99;100.00
77725;BME280;66892;53.236;6.550;2024-03-02T07:37:19;100257.34;;;7.12;100.00
77725;BME280;66892;53.236;6.550;2024-03-02T07:39:46;100261.72;;;7.43;100.00
77725;BME280;66892;53.236;6.550;2024-03-02T07:42:12;100262.63;;;7.60;100.00
77725;BME280;66892;53.236;6.550;2024-03-02T07:44:39;100268.75;;;7.59;100.00
77725;BME280;66892;53.236;6.550;2024-03-02T07:47:06;100267.00;;;7.34;100.00
77725;BME280;66892;53.236;6.550;2024-03-02T07:49:32;100271.34;;;7.06;100.00
77725;BME280;66892;53.236;6.550;2024-03-02T07:51:58;100266.94;;;6.90;100.00
77725;BME280;66892;53.236;6.550;2024-03-02T07:54:24;100273.91;;;6.85;100.00
77725;BME280;66892;53.236;6.550;2024-03-02T07:56:50;100281.78;;;6.79;100.00
77725;BME280;66892;53.236;6.550;2024-03-02T07:59:16;100282.66;;;6.84;100.00
77725;BME280;66892;53.236;6.550;2024-03-02T08:01:44;100288.88;;;7.00;100.00
77725;BME280;66892;53.236;6.550;2024-03-02T08:04:10;100287.97;;;6.98;100.00
77725;BME280;66892;53.236;6.550;2024-03-02T08:06:36;100292.34;;;6.93;100.00
77725;BME280;66892;53.236;6.550;2024-03-02T08:09:02;100285.34;;;6.87;100.00
77725;BME280;66892;53.236;6.550;2024-03-02T08:11:35;100292.25;;;6.71;100.00
77725;BME280;66892;53.236;6.550;2024-03-02T08:14:01;100289.59;;;6.59;100.00
77725;BME280;66892;53.236;6.550;2024-03-02T08:16:27;100290.41;;;6.46;100.00
77725;BME280;66892;53.236;6.550;2024-03-02T08:18:54;100291.28;;;6.44;100.00
77725;BME280;66892;53.236;6.550;2024-03-02T08:21:23;100300.91;;;6.42;100.00
77725;BME280;66892;53.236;6.550;2024-03-02T08:23:49;100302.63;;;6.36;100.00
77725;BME280;66892;53.236;6.550;2024-03-02T08:26:15;100305.25;;;6.36;100.00
77725;BME280;66892;53.236;6.550;2024-03-02T08:28:41;100306.97;;;6.33;100.00
77725;BME280;66892;53.236;6.550;2024-03-02T08:31:07;100321.00;;;6.36;100.00
77725;BME280;66892;53.236;6.550;2024-03-02T08:33:33;100321.06;;;6.47;100.00
77725;BME280;66892;53.236;6.550;2024-03-02T08:36:01;100322.00;;;6.57;100.00
77725;BME280;66892;53.236;6.550;2024-03-02T08:38:27;100323.78;;;6.71;100.00
77725;BME280;66892;53.236;6.550;2024-03-02T08:40:53;100319.50;;;6.98;100.00
77725;BME280;66892;53.236;6.550;2024-03-02T08:43:19;100324.00;;;7.35;100.00
77725;BME280;66892;53.236;6.550;2024-03-02T08:45:46;100317.00;;;7.76;100.00
77725;BME280;66892;53.236;6.550;2024-03-02T08:48:13;100321.31;;;8.20;100.00
77725;BME280;66892;53.236;6.550;2024-03-02T08:50:39;100325.63;;;8.51;100.00
77725;BME280;66892;53.236;6.550;2024-03-02T08:53:06;100330.84;;;8.75;100.00
77725;BME280;66892;53.236;6.550;2024-03-02T08:55:32;100326.31;;;9.05;100.00
77725;BME280;66892;53.236;6.550;2024-03-02T08:57:58;100336.75;;;9.20;100.00
77725;BME280;66892;53.236;6.550;2024-03-02T09:00:24;100334.03;;;9.32;99.35
77725;BME280;66892;53.236;6.550;2024-03-02T09:02:50;100336.69;;;9.33;99.69
77725;BME280;66892;53.236;6.550;2024-03-02T09:05:17;100338.41;;;9.39;99.18
77725;BME280;66892;53.236;6.550;2024-03-02T09:07:43;100341.03;;;9.43;97.26
77725;BME280;66892;53.236;6.550;2024-03-02T09:10:10;100333.78;;;9.73;95.95
77725;BME280;66892;53.236;6.550;2024-03-02T09:12:37;100326.38;;;10.11;96.96
77725;BME280;66892;53.236;6.550;2024-03-02T09:15:04;100336.03;;;10.15;95.22
77725;BME280;66892;53.236;6.550;2024-03-02T09:17:31;100330.81;;;10.06;91.93
77725;BME280;66892;53.236;6.550;2024-03-02T09:19:57;100329.16;;;9.97;93.42
77725;BME280;66892;53.236;6.550;2024-03-02T09:22:23;100328.44;;;9.77;92.43
77725;BME280;66892;53.236;6.550;2024-03-02T09:24:50;100329.41;;;9.69;93.60
77725;BME280;66892;53.236;6.550;2024-03-02T09:27:17;100325.00;;;9.69;94.70
77725;BME280;66892;53.236;6.550;2024-03-02T09:29:43;100321.44;;;9.70;94.84
77725;BME280;66892;53.236;6.550;2024-03-02T09:32:12;100332.97;;;9.59;94.47
77725;BME280;66892;53.236;6.550;2024-03-02T09:34:39;100335.72;;;9.46;92.73
77725;BME280;66892;53.236;6.550;2024-03-02T09:37:05;100335.94;;;10.26;92.46
77725;BME280;66892;53.236;6.550;2024-03-02T09:39:31;100337.63;;;10.31;89.71
77725;BME280;66892;53.236;6.550;2024-03-02T09:41:58;100333.31;;;10.24;91.15
77725;BME280;66892;53.236;6.550;2024-03-02T09:44:26;100336.22;;;10.79;86.42
77725;BME280;66892;53.236;6.550;2024-03-02T09:46:52;100344.19;;;10.78;87.13
77725;BME280;66892;53.236;6.550;2024-03-02T09:49:18;100342.09;;;11.63;84.87
77725;BME280;66892;53.236;6.550;2024-03-02T09:51:47;100335.63;;;12.33;82.48
77725;BME280;66892;53.236;6.550;2024-03-02T09:54:13;100332.88;;;12.82;75.27
77725;BME280;66892;53.236;6.550;2024-03-02T09:56:39;100334.78;;;12.31;78.34
77725;BME280;66892;53.236;6.550;2024-03-02T09:59:05;100329.91;;;12.97;76.11
77725;BME280;66892;53.236;6.550;2024-03-02T10:01:32;100331.44;;;13.10;72.96
77725;BME280;66892;53.236;6.550;2024-03-02T10:03:59;100335.72;;;13.56;69.90
77725;BME280;66892;53.236;6.550;2024-03-02T10:06:26;100332.13;;;14.92;64.82
77725;BME280;66892;53.236;6.550;2024-03-02T10:08:53;100339.50;;;13.83;66.59
77725;BME280;66892;53.236;6.550;2024-03-02T10:11:28;100329.22;;;12.89;70.86
77725;BME280;66892;53.236;6.550;2024-03-02T10:14:08;100342.81;;;12.27;74.03
77725;BME280;66892;53.236;6.550;2024-03-02T10:16:36;100336.53;;;11.82;76.22
77725;BME280;66892;53.236;6.550;2024-03-02T10:19:16;100340.19;;;11.73;76.62
77725;BME280;66892;53.236;6.550;2024-03-02T10:21:43;100336.75;;;11.67;76.33
77725;BME280;66892;53.236;6.550;2024-03-02T10:24:10;100331.00;;;11.37;78.77
77725;BME280;66892;53.236;6.550;2024-03-02T10:26:36;100334.69;;;11.27;79.92
77725;BME280;66892;53.236;6.550;2024-03-02T10:29:02;100340.72;;;11.38;81.84
77725;BME280;66892;53.236;6.550;2024-03-02T10:31:28;100334.47;;;11.42;81.30
77725;BME280;66892;53.236;6.550;2024-03-02T10:33:55;100341.63;;;11.36;80.35
77725;BME280;66892;53.236;6.550;2024-03-02T10:36:23;100332.13;;;11.21;81.00
77725;BME280;66892;53.236;6.550;2024-03-02T10:38:49;100327.13;;;11.00;80.75
77725;BME280;66892;53.236;6.550;2024-03-02T10:41:16;100330.91;;;10.79;83.65
77725;BME280;66892;53.236;6.550;2024-03-02T10:43:43;100333.78;;;10.63;84.74
77725;BME280;66892;53.236;6.550;2024-03-02T10:46:09;100322.38;;;10.57;84.97
77725;BME280;66892;53.236;6.550;2024-03-02T10:48:36;100324.13;;;10.58;86.39
77725;BME280;66892;53.236;6.550;2024-03-02T10:51:06;100334.00;;;10.41;85.59
77725;BME280;66892;53.236;6.550;2024-03-02T10:53:32;100326.16;;;10.35;85.40
77725;BME280;66892;53.236;6.550;2024-03-02T10:55:59;100325.31;;;10.33;84.06
77725;BME280;66892;53.236;6.550;2024-03-02T10:58:32;100334.94;;;10.39;86.16
77725;BME280;66892;53.236;6.550;2024-03-02T11:01:02;100329.50;;;10.51;87.61
77725;BME280;66892;53.236;6.550;2024-03-02T11:03:29;100330.34;;;10.54;87.22
77725;BME280;66892;53.236;6.550;2024-03-02T11:05:59;100329.50;;;10.52;86.92
77725;BME280;66892;53.236;6.550;2024-03-02T11:08:28;100333.03;;;10.53;85.14
77725;BME280;66892;53.236;6.550;2024-03-02T11:10:58;100340.25;;;10.36;84.60
77725;BME280;66892;53.236;6.550;2024-03-02T11:13:31;100331.53;;;10.25;85.62
77725;BME280;66892;53.236;6.550;2024-03-02T11:16:02;100334.00;;;10.43;85.20
77725;BME280;66892;53.236;6.550;2024-03-02T11:18:29;100330.38;;;10.51;85.52
77725;BME280;66892;53.236;6.550;2024-03-02T11:20:56;100330.75;;;10.93;84.42
77725;BME280;66892;53.236;6.550;2024-03-02T11:23:33;100330.63;;;11.02;81.92
77725;BME280;66892;53.236;6.550;2024-03-02T11:26:16;100320.69;;;11.79;78.47
77725;BME280;66892;53.236;6.550;2024-03-02T11:28:44;100312.88;;;12.20;75.36
77725;BME280;66892;53.236;6.550;2024-03-02T11:31:10;100322.34;;;12.35;74.18
77725;BME280;66892;53.236;6.550;2024-03-02T11:33:36;100320.34;;;12.46;75.32
77725;BME280;66892;53.236;6.550;2024-03-02T11:36:02;100316.41;;;12.21;75.12
77725;BME280;66892;53.236;6.550;2024-03-02T11:38:35;100321.06;;;11.54;75.61
77725;BME280;66892;53.236;6.550;2024-03-02T11:41:02;100325.75;;;11.36;77.40
77725;BME280;66892;53.236;6.550;2024-03-02T11:43:29;100318.75;;;11.33;79.32
77725;BME280;66892;53.236;6.550;2024-03-02T11:45:58;100312.91;;;11.08;79.56
77725;BME280;66892;53.236;6.550;2024-03-02T11:48:25;100321.00;;;10.98;80.20
77725;BME280;66892;53.236;6.550;2024-03-02T11:50:52;100315.72;;;10.98;80.44
77725;BME280;66892;53.236;6.550;2024-03-02T11:53:19;100310.28;;;11.07;80.97
77725;BME280;66892;53.236;6.550;2024-03-02T11:55:47;100303.25;;;11.04;80.40
77725;BME280;66892;53.236;6.550;2024-03-02T11:58:15;100320.94;;;11.02;82.32
77725;BME280;66892;53.236;6.550;2024-03-02T12:00:46;100307.72;;;11.01;80.35
77725;BME280;66892;53.236;6.550;2024-03-02T12:03:13;100309.63;;;10.91;79.39
77725;BME280;66892;53.236;6.550;2024-03-02T12:05:42;100310.59;;;10.84;78.61
77725;BME280;66892;53.236;6.550;2024-03-02T12:08:08;100300.81;;;10.89;77.08
77725;BME280;66892;53.236;6.550;2024-03-02T12:10:35;100308.78;;;10.86;78.07
77725;BME280;66892;53.236;6.550;2024-03-02T12:13:04;100305.22;;;10.89;76.55
77725;BME280;66892;53.236;6.550;2024-03-02T12:15:33;100305.16;;;10.95;76.12
77725;BME280;66892;53.236;6.550;2024-03-02T12:18:00;100306.09;;;10.91;76.50
77725;BME280;66892;53.236;6.550;2024-03-02T12:20:27;100312.16;;;10.99;79.50
77725;BME280;66892;53.236;6.550;2024-03-02T12:22:56;100300.69;;;11.00;76.81
77725;BME280;66892;53.236;6.550;2024-03-02T12:25:24;100309.50;;;10.99;74.97
77725;BME280;66892;53.236;6.550;2024-03-02T12:27:53;100301.66;;;10.94;74.98
77725;BME280;66892;53.236;6.550;2024-03-02T12:30:22;100294.56;;;10.95;75.82
77725;BME280;66892;53.236;6.550;2024-03-02T12:32:48;100306.97;;;10.91;76.96
77725;BME280;66892;53.236;6.550;2024-03-02T12:35:15;100305.13;;;10.98;76.21
77725;BME280;66892;53.236;6.550;2024-03-02T12:37:44;100308.53;;;11.04;75.44
77725;BME280;66892;53.236;6.550;2024-03-02T12:40:11;100311.88;;;11.19;78.44
77725;BME280;66892;53.236;6.550;2024-03-02T12:42:37;100313.78;;;11.10;78.94
77725;BME280;66892;53.236;6.550;2024-03-02T12:45:05;100322.47;;;11.19;76.43
77725;BME280;66892;53.236;6.550;2024-03-02T12:47:33;100318.06;;;11.19;78.25
77725;BME280;66892;53.236;6.550;2024-03-02T12:49:59;100316.38;;;11.12;78.78
77725;BME280;66892;53.236;6.550;2024-03-02T12:52:26;100314.44;;;11.26;76.72